createdAt,value
2017-11-27T04:31:02.711Z,12.30
2017-11-27T04:33:31.061Z,17.85
2017-11-27T04:35:58.644Z,16.40
2017-11-27T04:38:27.227Z,10.73
2017-11-27T04:40:55.574Z,10.68
2017-11-27T04:43:23.156Z,16.12
2017-11-27T04:45:51.543Z,9.15
2017-11-27T04:48:19.887Z,14.52
2017-11-27T04:50:47.467Z,13.70
2017-11-27T04:53:15.954Z,13.18
2017-11-27T04:55:44.302Z,7.87
2017-11-27T04:58:11.881Z,13.98
2017-11-27T05:00:40.251Z,12.93
2017-11-27T05:03:07.875Z,11.95
2017-11-27T05:05:35.495Z,17.30
2017-11-27T05:08:03.072Z,18.33
2017-11-27T05:10:30.653Z,9.40
2017-11-27T05:12:58.288Z,13.93
2017-11-27T05:15:25.867Z,12.85
2017-11-27T05:17:53.447Z,14.30
2017-11-27T05:20:21.075Z,9.90
2017-11-27T05:22:48.655Z,10.90
2017-11-27T05:25:16.235Z,13.77
2017-11-27T05:27:43.843Z,10.82
2017-11-27T05:30:11.424Z,11.23
2017-11-27T05:32:39.006Z,12.07
2017-11-27T05:35:06.649Z,12.60
2017-11-27T05:37:34.232Z,8.82
2017-11-27T05:40:01.816Z,10.80
2017-11-27T05:42:29.439Z,13.85
2017-11-27T05:44:57.027Z,13.77
2017-11-27T05:47:25.377Z,10.13
2017-11-27T05:49:52.995Z,11.32
2017-11-27T05:52:20.572Z,12.68
2017-11-27T05:54:48.155Z,13.30
2017-11-27T05:57:15.779Z,9.90
2017-11-27T05:59:43.359Z,7.80
2017-11-27T06:02:10.939Z,17.58
2017-11-27T06:04:38.543Z,10.25
2017-11-27T06:07:06.121Z,13.18
2017-11-27T06:09:33.758Z,9.75
2017-11-27T06:12:01.340Z,12.13
2017-11-27T06:14:28.929Z,12.80
2017-11-27T06:16:56.542Z,21.12
2017-11-27T06:19:24.116Z,9.63
2017-11-27T06:21:51.691Z,13.85
2017-11-27T06:24:19.323Z,14.18
2017-11-27T06:26:46.898Z,8.77
2017-11-27T06:29:14.481Z,12.68
2017-11-27T06:31:42.112Z,10.02
2017-11-27T06:34:09.697Z,13.93
2017-11-27T06:36:37.276Z,13.07
2017-11-27T06:39:05.647Z,16.17
2017-11-27T06:41:33.231Z,21.92
2017-11-27T06:44:00.811Z,10.63
2017-11-27T06:46:28.411Z,9.57
2017-11-27T06:48:55.994Z,11.82
2017-11-27T06:51:24.467Z,12.30
2017-11-27T06:53:52.829Z,13.23
2017-11-27T06:56:21.191Z,16.55
2017-11-27T06:58:48.826Z,10.68
2017-11-27T07:01:16.412Z,14.45
2017-11-27T07:03:43.998Z,15.60
2017-11-27T07:06:12.392Z,8.95
2017-11-27T07:08:40.740Z,18.58
2017-11-27T07:11:08.319Z,13.55
2017-11-27T07:13:36.694Z,15.25
2017-11-27T07:16:05.039Z,11.25
2017-11-27T07:18:32.667Z,14.77
2017-11-27T07:21:00.255Z,12.25
2017-11-27T07:23:27.837Z,13.38
2017-11-27T07:25:55.463Z,17.52
2017-11-27T07:28:23.043Z,18.65
2017-11-27T07:30:50.620Z,11.38
2017-11-27T07:33:18.983Z,14.25
2017-11-27T07:35:46.563Z,10.13
2017-11-27T07:38:20.699Z,9.10
2017-11-27T07:40:48.285Z,13.07
2017-11-27T07:43:15.879Z,11.50
2017-11-27T07:45:43.487Z,12.50
2017-11-27T07:48:11.068Z,15.10
2017-11-27T07:50:38.691Z,13.07
2017-11-27T07:53:06.283Z,5.62
2017-11-27T07:55:33.863Z,13.98
2017-11-27T07:58:01.470Z,7.20
2017-11-27T08:00:29.044Z,7.20
2017-11-27T08:02:56.635Z,10.20
2017-11-27T08:05:24.284Z,13.80
2017-11-27T08:07:51.864Z,9.77
2017-11-27T08:10:19.440Z,6.87
2017-11-27T08:12:47.804Z,7.62
2017-11-27T08:15:16.156Z,8.10
2017-11-27T08:17:43.740Z,10.00
2017-11-27T08:20:11.345Z,8.32
2017-11-27T08:22:38.931Z,7.97
2017-11-27T08:25:06.563Z,8.98
2017-11-27T08:27:34.139Z,8.38
2017-11-27T08:30:01.740Z,10.65
2017-11-27T08:32:30.203Z,9.23
2017-11-27T08:34:57.779Z,6.90
2017-11-27T08:37:26.130Z,10.55
2017-11-27T08:39:53.739Z,6.65
2017-11-27T08:42:21.317Z,7.05
2017-11-27T08:44:48.911Z,7.82
2017-11-27T08:47:16.511Z,8.48
2017-11-27T08:49:44.095Z,6.32
2017-11-27T08:52:11.695Z,8.88
2017-11-27T08:54:39.320Z,8.10
2017-11-27T08:57:06.908Z,8.55
2017-11-27T08:59:34.489Z,8.35
2017-11-27T09:02:02.859Z,3.90
2017-11-27T09:04:31.207Z,10.10
2017-11-27T09:06:58.787Z,8.18
2017-11-27T09:09:26.416Z,7.07
2017-11-27T09:11:53.996Z,6.37
2017-11-27T09:14:21.571Z,6.72
2017-11-27T09:16:49.988Z,12.52
2017-11-27T09:19:17.563Z,8.77
2017-11-27T09:21:45.144Z,4.95
2017-11-27T09:24:12.863Z,11.98
2017-11-27T09:26:40.442Z,12.73
2017-11-27T09:29:08.025Z,5.22
2017-11-27T09:31:35.648Z,8.50
2017-11-27T09:34:03.223Z,8.00
2017-11-27T09:36:30.799Z,8.35
2017-11-27T09:38:58.400Z,5.00
2017-11-27T09:41:26.747Z,5.43
2017-11-27T09:43:54.367Z,6.32
2017-11-27T09:46:21.951Z,8.55
2017-11-27T09:48:49.531Z,6.03
2017-11-27T09:51:17.139Z,8.20
2017-11-27T09:53:44.716Z,7.20
2017-11-27T09:56:12.296Z,10.60
2017-11-27T09:58:39.917Z,7.00
2017-11-27T10:01:07.491Z,4.32
2017-11-27T10:03:35.063Z,4.05
2017-11-27T10:06:02.678Z,4.93
2017-11-27T10:08:30.251Z,7.53
2017-11-27T10:10:57.828Z,9.35
2017-11-27T10:13:25.448Z,5.25
2017-11-27T10:15:53.024Z,5.18
2017-11-27T10:18:20.602Z,11.68
2017-11-27T10:20:48.223Z,8.25
2017-11-27T10:23:15.799Z,8.15
2017-11-27T10:25:43.384Z,5.50
2017-11-27T10:28:11.031Z,4.87
2017-11-27T10:30:38.603Z,5.12
2017-11-27T10:33:06.183Z,3.50
2017-11-27T10:35:33.784Z,5.80
2017-11-27T10:38:01.355Z,6.72
2017-11-27T10:40:28.931Z,6.75
2017-11-27T10:42:56.552Z,2.40
2017-11-27T10:45:24.131Z,6.05
2017-11-27T10:47:51.724Z,3.15
2017-11-27T10:50:19.357Z,6.03
2017-11-27T10:52:46.949Z,4.32
2017-11-27T10:55:14.526Z,6.85
2017-11-27T10:57:42.912Z,3.15
2017-11-27T11:00:11.254Z,3.75
2017-11-27T11:02:38.835Z,10.80
2017-11-27T11:05:06.444Z,5.18
2017-11-27T11:07:34.036Z,8.18
2017-11-27T11:10:01.619Z,9.85
2017-11-27T11:12:30.003Z,3.35
2017-11-27T11:14:58.348Z,6.15
2017-11-27T11:17:25.919Z,5.80
2017-11-27T11:19:53.525Z,3.35
2017-11-27T11:22:21.123Z,5.45
2017-11-27T11:24:48.710Z,12.50
2017-11-27T11:27:17.086Z,6.50
2017-11-27T11:29:45.435Z,10.45
2017-11-27T11:32:13.015Z,5.62
2017-11-27T11:34:40.635Z,4.43
2017-11-27T11:37:08.219Z,3.53
2017-11-27T11:39:35.810Z,6.47
2017-11-27T11:42:04.191Z,7.20
2017-11-27T11:44:31.776Z,4.15
2017-11-27T11:46:59.358Z,5.32
2017-11-27T11:49:26.963Z,5.72
2017-11-27T11:51:55.313Z,2.12
2017-11-27T11:54:22.895Z,6.35
2017-11-27T11:56:51.284Z,2.85
2017-11-27T11:59:18.868Z,7.65
2017-11-27T12:01:46.447Z,8.75
2017-11-27T12:04:14.163Z,3.15
2017-11-27T12:06:41.744Z,3.12
2017-11-27T12:09:09.334Z,4.00
2017-11-27T12:11:36.937Z,2.25
2017-11-27T12:14:04.531Z,4.93
2017-11-27T12:16:32.112Z,3.90
2017-11-27T12:18:59.731Z,3.28
2017-11-27T12:21:27.315Z,4.03
2017-11-27T12:23:54.887Z,1.67
2017-11-27T12:26:22.511Z,3.80
2017-11-27T12:28:50.095Z,2.08
2017-11-27T12:31:17.668Z,3.50
2017-11-27T12:33:45.304Z,4.45
2017-11-27T12:36:12.883Z,8.05
2017-11-27T12:38:40.475Z,3.90
2017-11-27T12:41:08.863Z,4.82
2017-11-27T12:43:36.440Z,5.65
2017-11-27T12:46:04.017Z,2.95
2017-11-27T12:48:31.652Z,5.35
2017-11-27T12:50:59.243Z,7.05
2017-11-27T12:53:26.823Z,2.50
2017-11-27T12:55:54.447Z,6.45
2017-11-27T12:58:22.032Z,5.72
2017-11-27T13:00:49.615Z,7.43
2017-11-27T13:03:17.991Z,4.93
2017-11-27T13:05:46.341Z,4.18
2017-11-27T13:08:14.801Z,4.25
2017-11-27T13:10:42.399Z,5.45
2017-11-27T13:13:09.991Z,1.95
2017-11-27T13:15:37.611Z,2.30
2017-11-27T13:18:05.188Z,2.35
2017-11-27T13:20:33.527Z,3.50
2017-11-27T13:23:01.139Z,3.25
2017-11-27T13:25:28.731Z,5.22
2017-11-27T13:27:56.340Z,2.22
2017-11-27T13:30:24.686Z,5.12
2017-11-27T13:32:52.266Z,4.35
2017-11-27T13:35:19.898Z,5.60
2017-11-27T13:37:47.476Z,6.07
2017-11-27T13:40:15.051Z,2.40
2017-11-27T13:42:43.443Z,4.72
2017-11-27T13:45:11.031Z,3.20
2017-11-27T13:47:38.607Z,2.85
2017-11-27T13:50:06.239Z,6.47
2017-11-27T13:52:33.816Z,5.53
2017-11-27T13:55:01.394Z,3.08
2017-11-27T13:57:29.095Z,3.50
2017-11-27T13:59:57.439Z,2.42
2017-11-27T14:02:25.022Z,3.47
2017-11-27T14:04:53.440Z,2.12
2017-11-27T14:07:21.024Z,4.50
2017-11-27T14:09:48.603Z,4.05
2017-11-27T14:12:16.215Z,5.05
2017-11-27T14:14:43.799Z,3.08
2017-11-27T14:17:11.379Z,6.50
2017-11-27T14:19:39.003Z,4.43
2017-11-27T14:22:06.583Z,5.65
2017-11-27T14:24:34.170Z,5.55
2017-11-27T14:27:02.576Z,5.55
2017-11-27T14:29:30.171Z,5.45
2017-11-27T14:31:57.752Z,1.55
2017-11-27T14:34:25.372Z,6.37
2017-11-27T14:36:52.951Z,6.70
2017-11-27T14:39:20.534Z,5.22
2017-11-27T14:41:48.131Z,3.10
2017-11-27T14:44:15.713Z,3.95
2017-11-27T14:46:43.292Z,5.20
2017-11-27T14:49:10.895Z,4.37
2017-11-27T14:51:38.472Z,3.42
2017-11-27T14:54:06.111Z,1.80
2017-11-27T14:56:33.691Z,3.67
2017-11-27T14:59:01.271Z,2.80
2017-11-27T15:01:28.905Z,3.12
2017-11-27T15:03:56.484Z,3.25
2017-11-27T15:06:24.076Z,2.72
2017-11-27T15:08:51.725Z,2.10
2017-11-27T15:11:19.380Z,2.80
2017-11-27T15:13:46.959Z,5.47
2017-11-27T15:16:14.588Z,3.42
2017-11-27T15:18:42.171Z,2.45
2017-11-27T15:21:09.760Z,5.32
2017-11-27T15:23:37.392Z,2.70
2017-11-27T15:26:04.980Z,3.05
2017-11-27T15:28:32.564Z,2.08
2017-11-27T15:31:00.195Z,2.92
2017-11-27T15:33:27.784Z,2.65
2017-11-27T15:35:55.367Z,2.28
2017-11-27T15:38:22.971Z,4.00
2017-11-27T15:40:51.315Z,5.55
2017-11-27T15:43:18.903Z,2.30
2017-11-27T15:45:47.304Z,1.65
2017-11-27T15:48:14.883Z,2.08
2017-11-27T15:50:42.467Z,3.10
2017-11-27T15:53:10.100Z,1.50
2017-11-27T15:55:37.676Z,1.60
2017-11-27T15:58:05.275Z,1.80
2017-11-27T16:00:33.641Z,2.22
2017-11-27T16:03:01.998Z,2.22
2017-11-27T16:05:29.591Z,2.47
2017-11-27T16:07:57.292Z,5.53
2017-11-27T16:10:24.871Z,1.40
2017-11-27T16:12:52.448Z,2.35
2017-11-27T16:15:20.070Z,2.67
2017-11-27T16:17:47.655Z,4.12
2017-11-27T16:20:15.235Z,2.37
2017-11-27T16:22:43.618Z,3.05
2017-11-27T16:25:11.963Z,1.42
2017-11-27T16:27:39.541Z,2.95
2017-11-27T16:30:07.824Z,2.28
2017-11-27T16:32:36.163Z,2.58
2017-11-27T16:35:03.740Z,3.50
2017-11-27T16:37:31.371Z,3.40
2017-11-27T16:39:58.955Z,1.20
2017-11-27T16:42:26.543Z,1.87
2017-11-27T16:44:54.931Z,3.47
2017-11-27T16:47:22.511Z,1.40
2017-11-27T16:49:50.087Z,1.15
2017-11-27T16:52:17.703Z,2.12
2017-11-27T16:54:45.285Z,1.85
2017-11-27T16:57:12.863Z,4.12
2017-11-27T16:59:40.463Z,2.65
2017-11-27T17:02:08.807Z,1.60
2017-11-27T17:04:36.392Z,1.73
2017-11-27T17:07:04.015Z,5.65
2017-11-27T17:09:31.592Z,2.05
2017-11-27T17:11:59.166Z,3.28
2017-11-27T17:14:26.898Z,1.65
2017-11-27T17:16:54.712Z,3.17
2017-11-27T17:19:23.095Z,2.67
2017-11-27T17:21:50.695Z,3.15
2017-11-27T17:24:18.279Z,3.15
2017-11-27T17:26:46.076Z,3.37
2017-11-27T17:29:13.723Z,2.37
2017-11-27T17:31:42.071Z,2.25
2017-11-27T17:34:09.698Z,2.33
2017-11-27T17:36:37.347Z,1.70
2017-11-27T17:39:04.943Z,2.62
2017-11-27T17:41:32.552Z,1.70
2017-11-27T17:44:00.168Z,8.93
2017-11-27T17:46:27.739Z,3.37
2017-11-27T17:48:55.347Z,1.92
2017-11-27T17:51:22.922Z,2.65
2017-11-27T17:53:50.507Z,1.30
2017-11-27T17:56:18.127Z,1.40
2017-11-27T17:58:45.701Z,2.35
2017-11-27T18:01:13.279Z,2.20
2017-11-27T18:03:40.883Z,1.70
2017-11-27T18:06:08.461Z,1.92
2017-11-27T18:08:36.163Z,1.62
2017-11-27T18:11:03.779Z,1.50
2017-11-27T18:13:31.360Z,2.58
2017-11-27T18:15:58.939Z,1.92
2017-11-27T18:18:26.573Z,1.60
2017-11-27T18:20:54.147Z,1.48
2017-11-27T18:23:21.725Z,1.90
2017-11-27T18:25:49.372Z,2.45
2017-11-27T18:28:16.947Z,1.77
2017-11-27T18:30:44.535Z,1.77
2017-11-27T18:33:12.142Z,1.25
2017-11-27T18:35:39.727Z,1.15
2017-11-27T18:38:07.350Z,1.60
2017-11-27T18:40:34.924Z,1.30
2017-11-27T18:43:02.507Z,1.98
2017-11-27T18:45:30.131Z,1.70
2017-11-27T18:47:57.712Z,1.87
2017-11-27T18:50:25.296Z,2.10
2017-11-27T18:52:53.730Z,2.17
2017-11-27T18:55:21.311Z,1.67
2017-11-27T18:57:48.887Z,1.40
2017-11-27T19:00:17.272Z,1.75
2017-11-27T19:02:45.628Z,1.50
2017-11-27T19:05:13.210Z,3.30
2017-11-27T19:07:41.611Z,1.40
2017-11-27T19:10:09.191Z,0.90
2017-11-27T19:12:36.787Z,1.98
2017-11-27T19:15:04.420Z,1.80
2017-11-27T19:17:31.999Z,3.75
2017-11-27T19:19:59.579Z,1.30
2017-11-27T19:22:27.964Z,0.82
2017-11-27T19:24:55.544Z,0.90
2017-11-27T19:27:23.124Z,1.10
2017-11-27T19:29:50.736Z,1.00
2017-11-27T19:32:19.082Z,1.02
2017-11-27T19:34:46.663Z,1.00
2017-11-27T19:37:15.035Z,1.02
2017-11-27T19:39:43.402Z,1.30
2017-11-27T19:42:11.831Z,1.52
2017-11-27T19:44:39.411Z,1.65
2017-11-27T19:47:06.988Z,1.05
2017-11-27T19:49:34.607Z,1.02
2017-11-27T19:52:02.184Z,1.30
2017-11-27T19:54:29.772Z,2.92
2017-11-27T19:56:57.403Z,1.20
2017-11-27T19:59:24.987Z,1.00
2017-11-27T20:01:52.563Z,0.70
2017-11-27T20:04:20.938Z,0.80
2017-11-27T20:06:49.280Z,1.30
2017-11-27T20:09:16.859Z,1.98
2017-11-27T20:11:44.487Z,1.00
2017-11-27T20:14:12.103Z,1.17
2017-11-27T20:16:40.448Z,2.05
2017-11-27T20:19:08.051Z,0.98
2017-11-27T20:21:35.640Z,1.10
2017-11-27T20:24:03.219Z,1.00
2017-11-27T20:26:30.835Z,0.90
2017-11-27T20:28:58.417Z,1.10
2017-11-27T20:31:25.991Z,1.17
2017-11-27T20:33:53.619Z,0.80
2017-11-27T20:36:21.196Z,0.80
2017-11-27T20:38:48.775Z,0.90
2017-11-27T20:41:16.404Z,1.35
2017-11-27T20:43:43.987Z,0.70
2017-11-27T20:46:11.565Z,1.00
2017-11-27T20:48:39.279Z,2.05
2017-11-27T20:51:06.856Z,1.00
2017-11-27T20:53:34.452Z,1.65
2017-11-27T20:56:02.839Z,0.80
2017-11-27T20:58:31.179Z,0.70
2017-11-27T21:00:58.756Z,2.05
2017-11-27T21:03:26.372Z,1.60
2017-11-27T21:05:54.027Z,0.90
2017-11-27T21:08:21.607Z,1.10
2017-11-27T21:10:49.220Z,0.80
2017-11-27T21:13:16.839Z,0.80
2017-11-27T21:15:44.416Z,0.80
2017-11-27T21:18:12.799Z,1.00
2017-11-27T21:20:41.149Z,0.90
2017-11-27T21:23:08.738Z,0.70
2017-11-27T21:25:37.108Z,0.93
2017-11-27T21:28:05.558Z,0.90
2017-11-27T21:30:33.162Z,1.00
2017-11-27T21:33:01.510Z,0.90
2017-11-27T21:35:29.108Z,0.70
2017-11-27T21:37:56.828Z,1.58
2017-11-27T21:43:00.043Z,0.90
2017-11-27T21:45:27.619Z,0.80
2017-11-27T21:47:55.968Z,1.08
2017-11-27T21:50:23.575Z,1.00
2017-11-27T21:52:51.147Z,1.25
2017-11-27T21:55:18.728Z,1.80
2017-11-27T21:57:46.356Z,1.00
2017-11-27T22:00:13.938Z,0.70
2017-11-27T22:02:41.514Z,1.12
2017-11-27T22:05:09.137Z,0.90
2017-11-27T22:07:36.727Z,1.45
2017-11-27T22:10:04.304Z,1.00
2017-11-27T22:12:31.919Z,0.90
2017-11-27T22:14:59.502Z,0.90
2017-11-27T22:17:27.078Z,1.33
2017-11-27T22:19:54.691Z,0.80
2017-11-27T22:22:22.267Z,0.93
2017-11-27T22:24:49.848Z,0.90
2017-11-27T22:27:17.451Z,1.20
2017-11-27T22:29:45.032Z,0.80
2017-11-27T22:32:12.654Z,1.25
2017-11-27T22:34:40.999Z,0.90
2017-11-27T22:37:08.579Z,0.80
2017-11-27T22:39:36.950Z,1.20
2017-11-27T22:42:04.527Z,0.80
2017-11-27T22:44:32.914Z,0.80
2017-11-27T22:47:01.256Z,0.98
2017-11-27T22:49:28.836Z,1.90
2017-11-27T22:51:57.229Z,0.82
2017-11-27T22:54:24.808Z,1.05
2017-11-27T22:56:52.389Z,0.80
2017-11-27T22:59:20.007Z,1.17
2017-11-27T23:01:47.592Z,1.85
2017-11-27T23:04:15.168Z,0.80
2017-11-27T23:06:42.785Z,0.80
2017-11-27T23:09:10.362Z,0.80
2017-11-27T23:11:38.087Z,0.85
2017-11-27T23:14:06.436Z,0.70
2017-11-27T23:16:34.019Z,1.75
2017-11-27T23:19:02.423Z,0.77
2017-11-27T23:21:30.015Z,0.70
2017-11-27T23:23:57.592Z,0.80
2017-11-27T23:26:25.188Z,0.80
2017-11-27T23:28:53.527Z,0.80
